Terminal Aerodrome Forecast
Issued by NWS Corpus Christi, TX

Home | Current Version | Previous Version | Text Only | Print | Product List | Glossary On
Versions: 1 2 3 4 5 6 7 8 9 10 11 12 13 14 15
000
FTUS44 KCRP 021122
TAFCRP
TAF
KCRP 021122Z 0212/0312 VRB04KT P6SM FEW020
      TEMPO 0212/0213 6SM BR
     FM021300 VRB05KT P6SM FEW025
     FM022000 13010KT P6SM SCT035=

USA.gov is the U.S. government's official web portal to all federal, state and local government web resources and services.